Terminal Aerodrome Forecast
Issued by NWS Charleston, WV

Current Version | Previous Version | Text Only | Print | Product List | Glossary On
Versions: 1 2 3 4 5 6 7 8 9 10 11 12 13 14 15 16 17 18 19 20 21 22 23 24 25 26 27 28 29 30
000
FTUS41 KRLX 161143
TAFEKN
TAF
KEKN 161143Z 1612/1712 24008KT P6SM BKN040
      TEMPO 1612/1614 BKN025
     FM161900 26009KT P6SM SCT130
     FM170200 25005KT P6SM FEW250=

USA.gov is the U.S. government's official web portal to all federal, state and local government web resources and services.